This is the latest recevied weather packets stored in our database for station/object K9MWD. If no packets are shown the sender has not sent any weather packets the latest 10 day(s).
| Time | Temp. | Humidity | Pressure | Rain* | Wind** | Luminosity | Snow |
|---|---|---|---|---|---|---|---|
| 1777513451 | 16.11° C | 85% | 1013.8 hPa | 0 mm | - | 0 W/m² | - |
| 1777513148 | 16.11° C | 85% | 1013.5 hPa | 0 mm | - | 0 W/m² | - |
| 1777512843 | 16.11° C | 85% | 1013.7 hPa | 0 mm | - | 0 W/m² | - |
| 1777512540 | 16.11° C | 85% | 1013.4 hPa | 0 mm | - | 0 W/m² | - |
| 1777512236 | 16.11° C | 85% | 1013.4 hPa | 0 mm | - | 0 W/m² | - |
| 1777511934 | 16.11° C | 85% | 1013.5 hPa | 0 mm | - | 0 W/m² | - |
| 1777511631 | 16.11° C | 86% | 1013.4 hPa | 0 mm | - | 0 W/m² | - |
| 1777511330 | 16.11° C | 87% | 1013.5 hPa | 0 mm | - | 0 W/m² | - |
| 1777511025 | 16.11° C | 87% | 1013.2 hPa | 0 mm | - | 1 W/m² | - |
| 1777510722 | 16.11° C | 88% | 1013.3 hPa | 0 mm | - | 1 W/m² | - |
| 1777510418 | 16.11° C | 89% | 1013.3 hPa | 0 mm | - | 1 W/m² | - |
| 1777510114 | 16.11° C | 90% | 1013.7 hPa | 0 mm | - | 2 W/m² | - |
| 1777509811 | 16.11° C | 90% | 1013.5 hPa | 0 mm | - | 2 W/m² | - |
| 1777509506 | 16.11° C | 91% | 1013.5 hPa | 0 mm | - | 4 W/m² | - |
| 1777509204 | 16.11° C | 91% | 1013.3 hPa | 0 mm | - | 4 W/m² | - |
| 1777508901 | 16.11° C | 91% | 1013 hPa | 0 mm | - | 7 W/m² | - |
| 1777508598 | 16.11° C | 91% | 1012.7 hPa | 0 mm | - | 11 W/m² | - |
| 1777508295 | 16.11° C | 91% | 1011.4 hPa | 0 mm | - | 46 W/m² | - |
| 1777507992 | 16.11° C | 91% | 1011.6 hPa | 0 mm | - | 65 W/m² | - |
| 1777507689 | 16.11° C | 91% | 1011.6 hPa | 0 mm | - | 53 W/m² | - |
| 1777507386 | 16.11° C | 91% | 1012.3 hPa | 0 mm | - | 53 W/m² | - |
| 1777507083 | 16.11° C | 91% | 1011.8 hPa | 0 mm | - | 72 W/m² | - |
| 1777506781 | 16.11° C | 91% | 1012.3 hPa | 0 mm | - | 76 W/m² | - |
| 1777506477 | 16.11° C | 91% | 1012.3 hPa | 6.1 mm | - | 73 W/m² | - |
| 1777506173 | 16.11° C | 91% | 1012.5 hPa | 15.49 mm | - | 65 W/m² | - |
* Rain latest hour (hover to see other rain measurements)
** Current wind speed in m/s (hover to see current wind gust speed)